createdAt,value
2022-10-17T00:05:09.375Z,6.78
2022-10-17T00:15:19.980Z,10.32
2022-10-17T00:25:28.947Z,7.72
2022-10-17T00:35:36.517Z,7.05
2022-10-17T00:45:45.474Z,7.93
2022-10-17T00:55:56.944Z,6.47
2022-10-17T01:06:05.599Z,7.07
2022-10-17T01:16:19.377Z,6.28
2022-10-17T01:26:40.410Z,8.45
2022-10-17T01:36:54.855Z,8.32
2022-10-17T01:47:07.357Z,8.25
2022-10-17T01:57:22.624Z,6.95
2022-10-17T02:07:30.019Z,8.98
2022-10-17T02:17:51.505Z,7.57
2022-10-17T02:28:03.900Z,10.23
2022-10-17T02:38:14.134Z,10.25
2022-10-17T02:48:27.476Z,12.80
2022-10-17T02:58:38.742Z,17.02
2022-10-17T03:08:46.276Z,20.30
2022-10-17T03:18:55.807Z,20.52
2022-10-17T03:29:02.863Z,22.33
2022-10-17T03:39:12.357Z,20.77
2022-10-17T03:49:19.683Z,21.30
2022-10-17T03:59:28.644Z,21.85
2022-10-17T04:09:43.633Z,22.08
2022-10-17T04:19:55.783Z,21.85
2022-10-17T04:30:03.295Z,20.27
2022-10-17T04:40:15.660Z,20.80
2022-10-17T04:50:30.702Z,20.52
2022-10-17T05:01:11.354Z,22.10
2022-10-17T05:11:22.940Z,24.73
2022-10-17T05:31:40.403Z,23.88
2022-10-17T05:41:49.889Z,25.83
2022-10-17T05:51:57.069Z,26.17
2022-10-17T06:02:06.967Z,26.48
2022-10-17T06:12:14.751Z,23.27
2022-10-17T06:22:24.658Z,23.60
2022-10-17T06:32:32.242Z,22.98
2022-10-17T06:42:41.062Z,25.67
2022-10-17T06:53:02.964Z,26.63
2022-10-17T07:03:34.924Z,27.52
2022-10-17T07:13:42.116Z,25.90
2022-10-17T07:23:51.432Z,24.83
2022-10-17T07:33:58.776Z,25.67
2022-10-17T07:44:07.736Z,25.58
2022-10-17T07:54:20.896Z,24.90
2022-10-17T08:04:29.618Z,27.27
2022-10-17T08:14:36.763Z,26.25
2022-10-17T08:24:47.339Z,26.70
2022-10-17T08:34:55.074Z,23.02
2022-10-17T08:45:19.236Z,24.73
2022-10-17T08:55:33.322Z,25.17
2022-10-17T09:05:53.413Z,27.05
2022-10-17T09:16:10.304Z,25.52
2022-10-17T09:26:19.581Z,27.50
2022-10-17T09:36:30.408Z,27.27
2022-10-17T09:46:41.247Z,27.92
2022-10-17T09:57:04.721Z,27.63
2022-10-17T10:07:16.138Z,31.47
2022-10-17T10:17:42.589Z,28.92
2022-10-17T10:27:51.926Z,29.05
2022-10-17T10:38:01.102Z,27.83
2022-10-17T10:48:22.166Z,27.30
2022-10-17T10:58:44.454Z,28.77
2022-10-17T11:09:04.372Z,28.52
2022-10-17T11:19:19.611Z,30.30
2022-10-17T11:29:32.754Z,28.15
2022-10-17T12:00:51.570Z,23.08
2022-10-17T12:11:04.287Z,21.90
2022-10-17T12:21:11.443Z,21.30
2022-10-17T12:31:33.871Z,21.38
2022-10-17T12:42:02.368Z,20.83
2022-10-17T13:03:10.022Z,19.65
2022-10-17T13:13:22.940Z,18.70
2022-10-17T13:23:32.668Z,17.60
2022-10-17T13:33:43.343Z,17.77
2022-10-17T13:43:50.755Z,18.97
2022-10-17T13:53:59.805Z,16.23
2022-10-17T14:04:17.099Z,16.60
2022-10-17T14:14:30.449Z,17.33
2022-10-17T14:24:43.127Z,16.08
2022-10-17T14:35:04.649Z,17.50
2022-10-17T14:45:21.284Z,16.27
2022-10-17T14:55:33.647Z,18.95
2022-10-17T15:05:40.809Z,19.70
2022-10-17T15:15:52.555Z,14.50
2022-10-17T15:25:59.554Z,14.82
2022-10-17T15:36:20.133Z,15.20
2022-10-17T15:46:29.174Z,14.05
2022-10-17T15:56:41.183Z,12.23
2022-10-17T16:06:48.272Z,12.48
2022-10-17T16:16:56.893Z,12.98
2022-10-17T16:27:03.920Z,14.87
2022-10-17T16:37:12.953Z,13.35
2022-10-17T16:47:20.959Z,12.00
2022-10-17T16:57:29.635Z,12.45
2022-10-17T17:07:36.673Z,10.82
2022-10-17T17:17:50.633Z,10.85
2022-10-17T17:28:00.344Z,11.50
2022-10-17T17:38:09.721Z,10.45
2022-10-17T17:48:16.921Z,10.18
2022-10-17T17:58:25.625Z,12.23
2022-10-17T18:08:32.569Z,10.65
2022-10-17T18:18:41.551Z,10.48
2022-10-17T18:28:48.719Z,11.10
2022-10-17T18:38:58.503Z,14.07
2022-10-17T18:49:06.112Z,11.55
2022-10-17T18:59:14.826Z,11.35
2022-10-17T19:09:21.841Z,13.18
2022-10-17T19:19:30.477Z,13.85
2022-10-17T19:29:38.041Z,14.95
2022-10-17T19:39:47.031Z,13.38
2022-10-17T19:49:54.196Z,12.75
2022-10-17T20:00:03.279Z,10.88
2022-10-17T20:10:19.427Z,12.38
2022-10-17T20:20:28.265Z,12.55
2022-10-17T20:30:35.198Z,15.50
2022-10-17T20:40:44.850Z,10.32
2022-10-17T20:50:52.079Z,12.48
2022-10-17T21:01:00.767Z,12.10
2022-10-17T21:11:12.221Z,12.98
2022-10-17T21:21:22.005Z,14.50
2022-10-17T21:31:30.224Z,14.90
2022-10-17T21:41:39.022Z,13.80
2022-10-17T21:51:48.395Z,13.73
2022-10-17T22:01:56.976Z,14.50
2022-10-17T22:12:06.742Z,14.02
2022-10-17T22:22:15.507Z,18.35
2022-10-17T22:32:22.712Z,13.38
2022-10-17T22:42:35.367Z,12.65
2022-10-17T22:52:43.063Z,13.00
2022-10-17T23:02:51.629Z,11.60
2022-10-17T23:12:58.612Z,13.52
2022-10-17T23:23:07.713Z,13.80
2022-10-17T23:33:15.687Z,13.80
2022-10-17T23:43:24.750Z,11.68
2022-10-17T23:53:31.928Z,12.20
